Time;durP1;ratioP1;P1;durP2;ratioP2;P2;SDS_P1;SDS_P2;PMS_P1;PMS_P2;Temp;Humidity;BMP_temperature;BMP_pressure;BME280_temperature;BME280_humidity;BME280_pressure;Samples;Min_cycle;Max_cycle;Signal;HPM_P1;HPM_P2
2022/06/08 00:00:24;;;;;;;25.92;9.43;;;;;;;17.81;61.21;94585.22;5040845;28;20052;-80
2022/06/08 00:02:58;;;;;;;40.53;14.13;;;;;;;17.80;61.95;94590.75;5035012;28;20065;-80
2022/06/08 00:05:23;;;;;;;57.70;17.80;;;;;;;17.68;62.33;94583.28;5040855;28;20029;-80
2022/06/08 00:07:49;;;;;;;52.30;17.70;;;;;;;17.59;63.20;94587.56;5040574;28;20037;-80
2022/06/08 00:10:14;;;;;;;50.78;14.52;;;;;;;17.52;63.13;94576.59;5014764;28;20041;-80
2022/06/08 00:12:40;;;;;;;30.95;10.43;;;;;;;17.47;63.33;94560.88;5018702;28;20045;-79
2022/06/08 00:15:10;;;;;;;17.63;7.90;;;;;;;17.37;63.22;94567.81;5022292;28;20093;-80
2022/06/08 00:17:35;;;;;;;14.18;5.32;;;;;;;17.34;63.83;94568.38;5037450;28;20033;-79
2022/06/08 00:20:02;;;;;;;17.70;5.50;;;;;;;17.30;63.59;94570.00;5040226;28;20420;-80
2022/06/08 00:22:28;;;;;;;8.63;4.60;;;;;;;17.25;63.77;94559.56;5015381;28;20034;-79
2022/06/08 00:24:54;;;;;;;14.88;4.78;;;;;;;17.21;64.12;94571.66;5012745;28;20033;-79
2022/06/08 00:27:19;;;;;;;5.25;4.72;;;;;;;17.22;64.43;94575.06;5029144;28;20045;-79
2022/06/08 00:29:44;;;;;;;7.75;5.18;;;;;;;17.23;64.04;94571.38;5005606;28;20037;-80
2022/06/08 00:32:10;;;;;;;8.27;4.60;;;;;;;17.19;63.87;94565.13;5041065;28;20040;-79
2022/06/08 00:34:36;;;;;;;7.88;4.93;;;;;;;17.08;64.33;94564.44;5005381;28;20699;-80
2022/06/08 00:37:01;;;;;;;9.52;4.60;;;;;;;17.01;64.64;94558.75;5038466;28;20033;-79
2022/06/08 00:39:27;;;;;;;9.68;4.15;;;;;;;17.00;64.70;94563.22;5040168;28;20026;-79
2022/06/08 00:41:53;;;;;;;13.82;5.88;;;;;;;16.97;65.74;94563.00;5040582;28;20409;-81
2022/06/08 00:44:24;;;;;;;14.07;5.30;;;;;;;16.95;65.39;94568.53;5017065;28;20158;-77
2022/06/08 00:46:50;;;;;;;27.70;8.23;;;;;;;16.89;65.43;94564.34;5028660;28;20650;-78
2022/06/08 00:49:48;;;;;;;11.57;5.80;;;;;;;16.87;65.54;94568.31;5022583;28;20056;-80
2022/06/08 00:52:13;;;;;;;14.43;5.57;;;;;;;16.82;65.49;94558.66;5035268;28;20041;-80
2022/06/08 00:54:40;;;;;;;9.48;5.07;;;;;;;16.75;65.46;94556.31;5040361;28;20030;-80
2022/06/08 00:57:28;;;;;;;12.85;4.93;;;;;;;16.74;65.93;94565.28;5022416;28;20590;-80
2022/06/08 00:59:58;;;;;;;12.60;6.55;;;;;;;16.69;66.62;94562.69;5012987;28;20036;-80
2022/06/08 01:02:24;;;;;;;14.73;6.40;;;;;;;16.65;66.48;94559.03;5013831;28;20054;-80
2022/06/08 01:04:49;;;;;;;10.52;6.45;;;;;;;16.60;67.01;94564.34;5023237;28;20029;-79
2022/06/08 01:07:19;;;;;;;11.05;6.65;;;;;;;16.54;67.07;94560.16;5039498;28;20037;-78
2022/06/08 01:09:45;;;;;;;7.85;5.82;;;;;;;16.54;67.31;94554.91;5044988;28;20041;-79
2022/06/08 01:12:13;;;;;;;20.42;6.28;;;;;;;16.49;67.33;94553.13;5018403;28;20059;-79
2022/06/08 01:14:38;;;;;;;13.55;6.25;;;;;;;16.49;67.40;94557.59;5044610;28;20044;-79
2022/06/08 01:17:14;;;;;;;19.67;5.25;;;;;;;16.42;67.48;94543.97;5023380;28;20065;-79
2022/06/08 01:19:41;;;;;;;14.45;5.68;;;;;;;16.43;67.80;94553.41;5031779;28;20037;-79
2022/06/08 01:22:07;;;;;;;19.10;5.93;;;;;;;16.41;67.40;94552.91;5014497;28;20036;-79
2022/06/08 01:24:33;;;;;;;8.25;5.72;;;;;;;16.33;68.27;94549.03;5014536;28;20061;-78
2022/06/08 01:27:20;;;;;;;16.10;6.40;;;;;;;16.28;68.90;94550.94;5024931;28;20033;-78
2022/06/08 01:30:12;;;;;;;31.65;9.70;;;;;;;16.25;68.72;94546.22;5017862;28;20049;-78
2022/06/08 01:32:46;;;;;;;24.17;10.15;;;;;;;16.25;69.03;94546.22;5023639;28;20120;-80
2022/06/08 01:35:19;;;;;;;24.77;10.00;;;;;;;16.25;68.63;94543.59;5042328;28;20417;-78
2022/06/08 01:38:15;;;;;;;19.52;8.27;;;;;;;16.24;68.13;94545.41;5056303;28;20041;-78
2022/06/08 01:40:56;;;;;;;16.88;6.88;;;;;;;16.21;67.94;94556.47;5049964;28;20044;-78
2022/06/08 01:43:31;;;;;;;13.82;6.00;;;;;;;16.13;68.16;94547.34;5028627;28;20041;-80
2022/06/08 01:46:06;;;;;;;10.07;6.60;;;;;;;16.07;68.43;94561.53;5029649;22;20032;-81
2022/06/08 01:48:46;;;;;;;8.82;5.85;;;;;;;16.05;68.66;94555.78;5057860;28;20128;-80
2022/06/08 01:51:15;;;;;;;14.30;5.90;;;;;;;16.01;68.50;94557.38;5033593;28;20032;-79
2022/06/08 01:53:58;;;;;;;13.43;6.82;;;;;;;15.96;69.02;94560.03;5048865;28;20056;-80
2022/06/08 01:59:13;;;;;;;9.50;4.95;;;;;;;16.02;68.42;94558.94;5630613;22;20052;-79
2022/06/08 02:01:49;;;;;;;9.68;5.63;;;;;;;16.02;67.56;94558.94;5055676;28;20053;-78
2022/06/08 02:04:17;;;;;;;10.80;5.07;;;;;;;15.99;68.38;94559.50;4993496;28;20038;-78
2022/06/08 02:06:51;;;;;;;9.00;5.15;;;;;;;15.95;68.54;94555.84;5040637;28;20099;-79
2022/06/08 02:09:36;;;;;;;15.82;5.32;;;;;;;15.88;68.58;94557.97;5020998;28;20129;-79
2022/06/08 02:12:06;;;;;;;16.02;6.20;;;;;;;15.82;69.18;94538.09;5013840;23;20421;-79
2022/06/08 02:14:37;;;;;;;15.02;5.30;;;;;;;15.89;69.05;94536.72;5035583;28;20053;-79
2022/06/08 02:17:04;;;;;;;11.25;4.88;;;;;;;15.92;68.54;94543.25;5029802;28;20424;-78
2022/06/08 02:19:37;;;;;;;13.75;6.32;;;;;;;15.93;68.73;94538.81;5072999;28;20040;-78
2022/06/08 02:22:12;;;;;;;16.40;6.22;;;;;;;15.90;68.84;94548.00;5056665;28;20036;-79
2022/06/08 02:24:41;;;;;;;17.42;7.05;;;;;;;15.88;68.66;94542.25;5046271;28;20041;-79
2022/06/08 02:27:24;;;;;;;15.68;5.10;;;;;;;15.88;68.69;94542.25;5057572;28;20092;-79
2022/06/08 02:30:05;;;;;;;9.55;4.78;;;;;;;15.87;68.19;94545.94;5050725;28;20037;-82
2022/06/08 02:35:28;;;;;;;9.30;3.83;;;;;;;15.77;67.20;94535.47;5073496;28;20072;-79
2022/06/08 02:37:56;;;;;;;4.60;4.20;;;;;;;15.60;67.87;94539.22;5059059;28;20044;-78
2022/06/08 02:40:27;;;;;;;5.57;3.63;;;;;;;15.40;68.65;94541.91;5044738;28;20067;-79
2022/06/08 02:42:55;;;;;;;8.98;4.18;;;;;;;15.22;69.43;94540.66;5069199;28;20033;-78
2022/06/08 02:45:23;;;;;;;11.10;4.95;;;;;;;15.05;70.37;94537.56;5054099;28;20044;-80
2022/06/08 02:47:50;;;;;;;12.75;4.65;;;;;;;15.07;70.34;94532.84;5070156;28;20505;-78
2022/06/08 02:50:21;;;;;;;7.20;4.32;;;;;;;15.20;69.73;94534.13;5056956;28;20025;-78
2022/06/08 02:52:47;;;;;;;13.80;5.95;;;;;;;15.31;69.76;94544.31;5059243;28;20086;-78
2022/06/08 02:55:48;;;;;;;22.63;8.00;;;;;;;15.38;69.94;94551.88;5074972;28;20036;-78
2022/06/08 02:58:20;;;;;;;20.60;8.25;;;;;;;15.38;69.49;94549.25;5056586;28;20037;-78
2022/06/08 03:00:52;;;;;;;11.25;6.63;;;;;;;15.45;68.81;94552.38;5058298;28;20028;-77
2022/06/08 03:03:23;;;;;;;9.32;6.00;;;;;;;15.51;68.70;94558.38;5058574;28;20041;-78
2022/06/08 03:05:57;;;;;;;5.43;4.47;;;;;;;15.59;68.63;94560.47;5051994;28;20075;-79
2022/06/08 03:08:27;;;;;;;11.65;6.18;;;;;;;15.69;68.77;94559.66;5074359;28;20051;-78
2022/06/08 03:10:52;;;;;;;24.45;6.80;;;;;;;15.75;68.16;94569.06;5048985;28;20036;-78
2022/06/08 03:13:44;;;;;;;16.90;6.10;;;;;;;15.86;67.78;94576.59;5059066;28;20037;-78
2022/06/08 03:16:24;;;;;;;27.15;6.95;;;;;;;15.95;67.34;94578.69;5059068;28;20033;-79
2022/06/08 03:18:49;;;;;;;14.20;6.57;;;;;;;16.01;67.23;94575.75;5059430;28;20048;-79
2022/06/08 03:21:15;;;;;;;22.75;6.97;;;;;;;16.09;66.65;94569.91;5042600;28;20068;-79
2022/06/08 03:23:40;;;;;;;15.05;6.45;;;;;;;16.19;66.52;94567.22;5065842;28;20511;-78
2022/06/08 03:26:05;;;;;;;21.75;6.00;;;;;;;16.21;66.72;94573.00;5050272;28;20024;-78
2022/06/08 03:28:33;;;;;;;27.05;6.97;;;;;;;16.30;66.68;94572.44;5052017;28;20029;-76
2022/06/08 03:30:58;;;;;;;29.00;7.57;;;;;;;16.39;66.58;94568.94;5060191;28;20021;-77
2022/06/08 03:33:24;;;;;;;14.90;7.28;;;;;;;16.50;66.25;94577.53;5051584;28;20052;-78
2022/06/08 03:35:49;;;;;;;25.50;7.65;;;;;;;16.59;66.09;94573.25;5052963;28;20059;-79
2022/06/08 03:38:15;;;;;;;23.67;6.05;;;;;;;16.73;65.97;94574.22;5066968;28;20079;-78
2022/06/08 03:40:40;;;;;;;20.65;5.97;;;;;;;16.86;65.33;94574.63;5062789;28;20032;-79
2022/06/08 03:43:06;;;;;;;17.92;6.05;;;;;;;16.98;64.92;94570.59;5065214;28;20037;-79
2022/06/08 03:45:55;;;;;;;28.83;6.97;;;;;;;17.10;64.35;94567.59;5079794;28;20036;-77
2022/06/08 03:48:21;;;;;;;24.10;7.03;;;;;;;17.20;63.97;94562.22;5068183;28;20037;-79
2022/06/08 03:50:49;;;;;;;17.08;5.57;;;;;;;17.33;63.71;94566.81;5035837;28;20091;-78
2022/06/08 03:53:21;;;;;;;11.73;5.93;;;;;;;17.44;62.73;94559.59;5061540;28;20037;-79
2022/06/08 03:55:47;;;;;;;9.25;6.53;;;;;;;17.58;62.04;94572.84;5059460;28;20026;-79
2022/06/08 03:58:13;;;;;;;15.52;7.18;;;;;;;17.75;62.29;94564.53;5057384;28;20029;-79
2022/06/08 04:00:39;;;;;;;21.95;6.63;;;;;;;18.02;61.67;94566.53;5039720;28;20036;-79
2022/06/08 04:03:04;;;;;;;23.00;5.90;;;;;;;19.48;58.56;94562.59;5073940;28;20063;-79
2022/06/08 04:05:30;;;;;;;23.73;7.05;;;;;;;21.84;50.75;94565.53;5040551;28;20083;-79
2022/06/08 04:07:55;;;;;;;13.40;5.13;;;;;;;24.26;44.53;94565.03;5057143;28;20082;-79
2022/06/08 04:10:21;;;;;;;18.35;4.63;;;;;;;26.34;39.60;94553.66;5077076;23;20529;-80
2022/06/08 04:12:46;;;;;;;20.70;4.65;;;;;;;28.11;35.41;94550.53;5036492;28;20416;-83
2022/06/08 04:15:41;;;;;;;16.35;4.07;;;;;;;29.59;32.42;94548.44;5036360;28;20042;-80
2022/06/08 04:17:57;;;;;;;8.38;3.58;;;;;;;30.75;30.55;94553.13;5037297;28;20532;-81
2022/06/08 04:20:23;;;;;;;11.35;3.40;;;;;;;32.28;28.29;94542.97;5039870;28;20091;-80
2022/06/08 04:22:48;;;;;;;16.40;3.95;;;;;;;33.16;26.66;94539.06;5022246;28;20029;-78
2022/06/08 04:25:17;;;;;;;8.93;3.42;;;;;;;34.27;25.02;94535.22;5005327;28;20575;-79
2022/06/08 04:27:42;;;;;;;13.40;3.38;;;;;;;35.22;24.18;94538.72;5020440;28;20026;-80
2022/06/08 04:30:08;;;;;;;4.40;3.30;;;;;;;35.64;23.14;94532.25;5039286;28;20033;-80
2022/06/08 04:32:34;;;;;;;18.27;3.92;;;;;;;36.32;21.58;94528.94;5038761;28;20030;-81
2022/06/08 04:34:59;;;;;;;8.30;3.60;;;;;;;36.89;21.07;94531.75;5037394;28;20040;-81
2022/06/08 04:37:27;;;;;;;8.48;3.30;;;;;;;37.53;20.25;94533.56;5038643;28;20036;-81
2022/06/08 04:39:53;;;;;;;6.32;2.80;;;;;;;37.80;20.02;94530.06;5020471;28;20033;-81
2022/06/08 04:42:18;;;;;;;8.15;2.92;;;;;;;38.58;19.06;94525.94;5006543;28;20124;-80
2022/06/08 04:44:44;;;;;;;16.23;3.33;;;;;;;38.91;19.10;94526.84;5023936;28;20088;-82
2022/06/08 04:47:10;;;;;;;15.05;4.22;;;;;;;39.67;18.15;94534.88;5005404;28;20040;-80
2022/06/08 04:49:35;;;;;;;21.40;4.13;;;;;;;39.85;18.14;94531.69;5021383;28;20088;-81
2022/06/08 04:52:01;;;;;;;26.52;3.72;;;;;;;40.43;17.54;94532.56;5021772;28;20029;-81
2022/06/08 04:54:26;;;;;;;9.80;3.20;;;;;;;41.29;17.00;94530.88;5063667;22;20219;-82
2022/06/08 04:56:52;;;;;;;8.73;2.90;;;;;;;41.86;15.97;94525.63;5038691;28;20224;-78
2022/06/08 04:59:17;;;;;;;9.80;2.80;;;;;;;42.12;15.75;94538.00;5019971;28;20910;-79
2022/06/08 05:01:43;;;;;;;16.98;3.35;;;;;;;42.45;15.88;94537.66;5022326;28;20037;-78
2022/06/08 05:04:08;;;;;;;11.20;2.30;;;;;;;42.84;15.31;94547.97;5022199;28;20095;-78
2022/06/08 05:06:34;;;;;;;4.75;2.60;;;;;;;43.16;14.41;94529.63;5005021;28;20767;-78
2022/06/08 05:08:59;;;;;;;16.65;2.70;;;;;;;43.60;14.76;94541.19;5040345;28;20033;-78
2022/06/08 05:11:25;;;;;;;13.85;2.70;;;;;;;43.57;14.09;94531.13;5005541;28;20029;-78
2022/06/08 05:13:50;;;;;;;8.77;2.58;;;;;;;43.72;13.94;94532.13;4989973;28;20097;-78
2022/06/08 05:16:16;;;;;;;15.93;2.70;;;;;;;44.35;13.56;94527.16;5006421;28;20059;-78
2022/06/08 05:18:41;;;;;;;16.95;2.63;;;;;;;44.84;13.32;94537.19;5024467;28;20033;-77
2022/06/08 05:21:07;;;;;;;6.28;2.40;;;;;;;45.10;12.63;94529.38;5008870;28;20033;-78
2022/06/08 05:23:35;;;;;;;10.27;2.75;;;;;;;45.42;12.36;94534.13;5022899;28;20092;-78
2022/06/08 05:26:02;;;;;;;11.30;2.47;;;;;;;45.52;12.68;94526.59;5004756;28;20428;-78
2022/06/08 05:28:27;;;;;;;8.27;2.65;;;;;;;45.82;12.34;94532.25;5036651;28;20033;-78
2022/06/08 05:30:56;;;;;;;6.45;2.58;;;;;;;45.58;12.21;94530.25;5037966;28;20044;-80
2022/06/08 05:33:22;;;;;;;7.55;2.20;;;;;;;46.01;12.24;94533.66;5022034;28;20116;-81
2022/06/08 05:35:47;;;;;;;11.52;2.70;;;;;;;46.29;11.98;94540.50;5039578;28;20072;-80
2022/06/08 05:38:13;;;;;;;10.48;2.92;;;;;;;46.43;11.73;94532.78;5044370;28;20021;-80
2022/06/08 05:40:38;;;;;;;17.98;2.50;;;;;;;46.54;12.06;94533.75;5010877;28;20064;-80
2022/06/08 05:43:05;;;;;;;21.17;3.47;;;;;;;46.85;11.58;94538.03;5011897;28;20029;-80
2022/06/08 05:45:30;;;;;;;12.40;2.70;;;;;;;46.29;11.99;94542.47;5006922;28;20025;-81
2022/06/08 05:47:57;;;;;;;18.02;2.83;;;;;;;46.24;11.83;94537.66;5004436;28;20033;-80
2022/06/08 05:50:23;;;;;;;14.35;3.15;;;;;;;46.81;11.68;94543.72;4990195;28;20464;-80
2022/06/08 05:52:48;;;;;;;20.38;3.70;;;;;;;47.04;11.37;94544.13;5040712;28;20029;-80
2022/06/08 05:55:14;;;;;;;18.95;3.72;;;;;;;47.42;10.90;94541.22;5040037;28;20040;-81
2022/06/08 05:57:40;;;;;;;12.10;2.70;;;;;;;47.28;10.90;94527.47;5021963;28;20036;-79
2022/06/08 06:00:07;;;;;;;10.32;3.25;;;;;;;47.59;10.97;94529.72;5005946;28;20033;-80
2022/06/08 06:02:33;;;;;;;11.15;2.80;;;;;;;47.65;10.95;94533.28;5006590;28;20029;-81
2022/06/08 06:04:58;;;;;;;9.98;3.30;;;;;;;47.96;10.90;94521.69;5022954;28;20033;-79
2022/06/08 06:07:25;;;;;;;13.57;2.85;;;;;;;47.39;10.91;94522.91;5023175;28;20041;-79
2022/06/08 06:09:50;;;;;;;7.63;2.67;;;;;;;47.21;10.62;94523.91;5041308;28;20029;-79
2022/06/08 06:12:16;;;;;;;19.20;3.00;;;;;;;47.45;11.22;94523.72;5028408;28;20086;-81
2022/06/08 06:14:42;;;;;;;12.30;3.03;;;;;;;47.56;10.52;94522.41;5007604;28;20099;-79
2022/06/08 06:17:07;;;;;;;17.90;2.60;;;;;;;47.64;10.30;94512.50;5008138;28;20116;-79
2022/06/08 06:22:17;;;;;;;6.60;2.80;;;;;;;45.95;11.34;94510.81;4997817;28;20528;-79
2022/06/08 06:24:42;;;;;;;10.07;3.03;;;;;;;43.84;12.92;94502.31;5024787;28;20029;-79
2022/06/08 06:27:08;;;;;;;12.88;3.13;;;;;;;42.50;14.18;94512.53;5039868;28;20409;-79
2022/06/08 06:29:33;;;;;;;9.52;3.20;;;;;;;40.84;14.89;94503.78;5007792;28;20029;-81
2022/06/08 06:32:01;;;;;;;14.10;3.40;;;;;;;39.58;16.33;94502.06;5042167;28;20041;-79
2022/06/08 06:34:27;;;;;;;13.85;3.28;;;;;;;38.27;17.90;94503.66;5006719;28;20049;-79
2022/06/08 06:36:58;;;;;;;11.18;3.58;;;;;;;37.13;18.84;94502.78;5004970;28;20029;-79
2022/06/08 06:39:23;;;;;;;7.22;3.35;;;;;;;36.58;19.78;94503.09;5008215;28;20136;-79
2022/06/08 06:41:49;;;;;;;9.25;3.60;;;;;;;36.71;19.53;94492.50;5008580;28;20513;-82
2022/06/08 06:44:15;;;;;;;8.93;3.40;;;;;;;37.91;18.26;94487.22;5023911;28;20193;-79
2022/06/08 06:46:40;;;;;;;16.88;3.70;;;;;;;38.28;18.26;94493.56;5042278;28;20119;-79
2022/06/08 06:49:06;;;;;;;17.77;4.13;;;;;;;38.58;17.48;94481.72;5042507;28;20041;-79
2022/06/08 06:51:34;;;;;;;26.67;3.97;;;;;;;39.04;17.18;94483.44;5026432;28;20067;-79
2022/06/08 06:54:00;;;;;;;16.38;4.22;;;;;;;39.48;16.86;94484.75;5026399;28;20055;-80
2022/06/08 06:56:25;;;;;;;38.13;16.38;;;;;;;39.50;17.26;94482.38;5042400;28;20041;-80
2022/06/08 06:58:51;;;;;;;9.45;4.88;;;;;;;39.74;16.69;94480.25;5025858;28;20052;-79
2022/06/08 07:01:23;;;;;;;33.97;16.65;;;;;;;39.90;17.24;94482.97;5009408;28;20033;-79
2022/06/08 07:03:49;;;;;;;27.58;3.67;;;;;;;39.53;16.59;94476.09;5024677;28;20021;-79
2022/06/08 07:06:14;;;;;;;29.25;4.85;;;;;;;39.12;17.39;94463.09;5042818;28;20037;-79
2022/06/08 07:08:40;;;;;;;11.73;3.17;;;;;;;38.95;17.68;94464.22;5025445;28;20039;-80
2022/06/08 07:13:50;;;;;;;21.02;4.80;;;;;;;38.23;18.54;94477.72;5009860;28;20037;-80
2022/06/08 07:16:15;;;;;;;9.20;3.55;;;;;;;37.36;18.89;94474.94;5040640;28;20030;-80
2022/06/08 07:18:41;;;;;;;9.75;3.92;;;;;;;37.08;19.46;94483.47;5025920;28;20041;-79
2022/06/08 07:21:06;;;;;;;10.73;4.05;;;;;;;36.60;19.65;94479.84;5049632;22;20037;-81
2022/06/08 07:23:32;;;;;;;5.35;3.70;;;;;;;36.31;20.51;94484.84;5042448;28;20448;-80
2022/06/08 07:25:57;;;;;;;9.05;3.85;;;;;;;35.91;20.70;94478.28;5039879;28;20021;-80
2022/06/08 07:28:23;;;;;;;9.45;3.60;;;;;;;35.45;21.44;94489.50;5025962;28;20029;-78
2022/06/08 07:30:48;;;;;;;18.50;4.55;;;;;;;35.07;22.27;94480.50;5040656;28;20034;-78
2022/06/08 07:33:14;;;;;;;9.75;4.53;;;;;;;34.74;22.47;94484.53;5008013;28;20470;-79
2022/06/08 07:35:40;;;;;;;7.22;4.30;;;;;;;34.58;23.06;94487.69;5022664;28;20029;-78
2022/06/08 07:38:05;;;;;;;16.13;4.47;;;;;;;34.47;22.84;94482.34;5044024;28;20059;-79
2022/06/08 07:40:31;;;;;;;18.63;5.15;;;;;;;34.28;23.62;94490.88;5042913;28;20037;-79
2022/06/08 07:42:56;;;;;;;12.68;4.22;;;;;;;34.35;22.90;94493.56;5043096;28;20413;-79
2022/06/08 07:45:22;;;;;;;37.00;5.00;;;;;;;33.95;23.40;94492.13;5037402;28;20021;-79
2022/06/08 07:50:31;;;;;;;13.15;4.68;;;;;;;33.28;24.18;94490.97;5026742;28;20052;-79
2022/06/08 07:52:57;;;;;;;23.58;4.90;;;;;;;32.51;24.76;94489.63;5041256;28;20033;-78
2022/06/08 07:55:22;;;;;;;11.45;4.03;;;;;;;32.19;25.35;94498.31;5007948;28;20029;-79
2022/06/08 07:57:48;;;;;;;13.98;6.47;;;;;;;32.27;25.69;94492.97;5024554;28;20085;-78
2022/06/08 08:00:17;;;;;;;11.98;4.82;;;;;;;32.25;25.93;94488.75;5040251;28;20046;-78
2022/06/08 08:02:43;;;;;;;18.00;6.00;;;;;;;31.92;26.32;94494.34;5038109;28;20034;-78
2022/06/08 08:05:12;;;;;;;10.35;4.43;;;;;;;31.51;26.64;94485.56;5045639;28;20052;-78
2022/06/08 08:07:38;;;;;;;9.43;4.40;;;;;;;31.43;26.45;94487.44;5044406;28;20037;-78
2022/06/08 08:10:06;;;;;;;8.93;4.20;;;;;;;31.06;26.78;94490.94;5040209;28;20037;-77
2022/06/08 08:12:31;;;;;;;14.77;4.40;;;;;;;30.25;28.19;94477.38;5009093;28;20096;-77
2022/06/08 08:14:56;;;;;;;9.65;4.60;;;;;;;29.99;28.45;94477.41;5004272;28;20030;-78
2022/06/08 08:17:23;;;;;;;11.18;4.40;;;;;;;29.71;29.08;94480.47;5032827;28;20048;-78
2022/06/08 08:19:48;;;;;;;13.85;4.50;;;;;;;29.62;28.93;94471.94;5016823;28;20488;-78
2022/06/08 08:22:15;;;;;;;14.02;5.13;;;;;;;29.65;29.73;94461.25;5036133;28;20025;-78
2022/06/08 08:24:41;;;;;;;7.90;4.43;;;;;;;29.74;29.79;94459.06;5005488;28;20059;-78
2022/06/08 08:27:07;;;;;;;16.15;4.40;;;;;;;29.93;28.64;94455.50;5020197;28;20045;-79
2022/06/08 08:29:32;;;;;;;12.73;4.00;;;;;;;29.99;28.76;94451.38;5037941;28;20059;-79
2022/06/08 08:31:58;;;;;;;11.48;4.80;;;;;;;29.92;28.69;94448.59;5038237;28;20093;-79
2022/06/08 08:34:23;;;;;;;15.52;4.45;;;;;;;29.61;28.48;94455.06;5046278;28;20030;-78
2022/06/08 08:36:49;;;;;;;11.68;4.93;;;;;;;29.66;29.54;94459.34;5051644;28;20045;-79
2022/06/08 08:39:15;;;;;;;10.65;4.53;;;;;;;29.69;28.90;94456.72;5042052;28;20037;-79
2022/06/08 08:44:46;;;;;;;7.88;3.95;;;;;;;28.88;28.82;94446.25;5021906;28;20111;-80
2022/06/08 08:47:40;;;;;;;11.98;3.67;;;;;;;28.73;29.92;94449.78;5038213;28;20543;-79
2022/06/08 08:50:18;;;;;;;14.30;4.40;;;;;;;28.80;29.23;94443.75;5038312;28;20025;-79
2022/06/08 08:52:54;;;;;;;6.38;4.68;;;;;;;28.79;28.94;94436.88;5041926;28;20033;-79
2022/06/08 08:55:25;;;;;;;6.40;5.03;;;;;;;28.88;29.87;94440.13;5040609;28;20049;-79
2022/06/08 08:57:54;;;;;;;9.82;3.33;;;;;;;28.72;28.83;94437.53;5040645;28;20034;-79
2022/06/08 09:00:24;;;;;;;12.25;2.97;;;;;;;28.66;29.08;94450.44;5047934;28;20056;-79
2022/06/08 09:05:34;;;;;;;16.17;3.60;;;;;;;28.79;29.47;94428.84;5040713;28;20033;-81
2022/06/08 09:07:59;;;;;;;13.68;3.10;;;;;;;28.76;28.91;94432.22;5039465;28;20461;-80
2022/06/08 09:10:26;;;;;;;7.25;3.08;;;;;;;28.77;29.53;94423.06;5039242;28;20033;-80
2022/06/08 09:12:52;;;;;;;6.38;2.97;;;;;;;28.80;29.43;94415.13;5043435;28;20037;-81
2022/06/08 09:15:38;;;;;;;6.00;2.70;;;;;;;28.87;29.16;94417.16;5009305;28;21009;-81
2022/06/08 09:18:05;;;;;;;8.68;2.40;;;;;;;28.56;28.25;94424.25;5029024;28;20412;-81
2022/06/08 09:20:35;;;;;;;4.00;2.17;;;;;;;28.31;28.61;94423.81;5009697;28;20268;-81
2022/06/08 09:23:23;;;;;;;13.13;3.00;;;;;;;28.07;28.95;94427.50;5009759;28;20037;-81
2022/06/08 09:26:03;;;;;;;6.10;2.70;;;;;;;27.99;29.13;94427.72;5041171;28;20068;-81
2022/06/08 09:28:30;;;;;;;3.88;2.88;;;;;;;27.92;29.44;94414.97;5004350;28;20140;-82
2022/06/08 09:30:56;;;;;;;6.82;2.30;;;;;;;27.90;29.18;94414.56;5045005;28;20033;-82
2022/06/08 09:33:25;;;;;;;6.30;2.05;;;;;;;27.82;29.20;94420.88;5041962;28;20101;-81
2022/06/08 09:35:53;;;;;;;7.18;2.83;;;;;;;27.49;29.60;94416.72;5041545;28;20120;-81
2022/06/08 09:38:19;;;;;;;6.05;2.50;;;;;;;27.47;29.59;94418.97;4999790;28;20123;-81
2022/06/08 09:40:57;;;;;;;8.13;2.53;;;;;;;27.24;29.50;94415.41;5019201;28;20125;-78
2022/06/08 09:43:39;;;;;;;11.23;2.63;;;;;;;27.11;29.34;94411.28;5038952;28;20055;-81
2022/06/08 09:46:21;;;;;;;4.82;2.25;;;;;;;27.05;29.43;94408.09;5038860;28;20040;-80
2022/06/08 09:52:10;;;;;;;6.63;2.80;;;;;;;26.79;30.08;94399.78;5045449;28;20044;-80
2022/06/08 09:55:04;;;;;;;6.55;2.83;;;;;;;26.80;30.06;94399.44;5044900;28;20030;-80
2022/06/08 09:57:36;;;;;;;5.43;2.50;;;;;;;26.79;29.69;94384.56;5025407;28;20033;-81
2022/06/08 10:00:21;;;;;;;;;;;;;;;26.75;30.64;94389.06;5041324;28;20413;-81
2022/06/08 10:03:28;;;;;;;9.82;2.20;;;;;;;26.26;31.76;94391.19;5034305;28;19916;-81
2022/06/08 10:06:08;;;;;;;5.20;2.05;;;;;;;26.15;30.54;94396.25;5063148;28;20971;-82
2022/06/08 10:09:18;;;;;;;6.72;1.95;;;;;;;25.90;30.59;94381.47;5024130;28;20041;-82
2022/06/08 10:12:12;;;;;;;5.38;2.25;;;;;;;25.94;31.09;94377.00;5026675;28;20030;-81
2022/06/08 10:15:01;;;;;;;3.30;2.03;;;;;;;26.03;31.57;94375.78;5048770;23;20072;-81
2022/06/08 10:18:09;;;;;;;7.28;1.77;;;;;;;26.01;31.54;94380.63;5033817;28;20060;-81
2022/06/08 10:20:39;;;;;;;9.95;2.20;;;;;;;25.98;30.94;94383.22;5038340;28;20061;-81
2022/06/08 10:23:33;;;;;;;4.85;1.58;;;;;;;25.79;31.44;94383.06;5235746;23;20036;-82
2022/06/08 10:26:07;;;;;;;1.98;1.70;;;;;;;25.54;32.36;94375.09;5059931;28;20033;-82
2022/06/08 10:28:49;;;;;;;11.63;1.77;;;;;;;25.17;33.43;94370.97;5075965;28;20041;-82
2022/06/08 10:31:15;;;;;;;;;;;;;;;25.33;32.86;94382.47;5050153;28;20845;-83
2022/06/08 10:34:09;;;;;;;7.68;1.50;;;;;;;25.47;32.61;94364.25;5048996;28;19987;-82
2022/06/08 10:36:35;;;;;;;7.75;1.90;;;;;;;25.63;32.17;94367.00;5045952;28;20040;-82
2022/06/08 10:39:02;;;;;;;5.50;2.00;;;;;;;25.58;31.46;94362.69;5021790;28;20021;-83
2022/06/08 10:44:52;;;;;;;3.58;1.70;;;;;;;25.84;32.16;94356.19;5037111;28;20071;-81
2022/06/08 10:47:24;;;;;;;3.30;2.00;;;;;;;25.95;31.80;94358.03;5050885;28;20091;-82
2022/06/08 10:49:52;;;;;;;5.82;1.90;;;;;;;26.03;31.97;94349.13;5042229;28;20032;-82
2022/06/08 10:52:28;;;;;;;9.05;2.13;;;;;;;26.14;32.42;94351.28;5041838;28;20040;-82
2022/06/08 10:55:17;;;;;;;6.40;1.90;;;;;;;26.13;32.53;94353.16;5059319;28;20093;-81
2022/06/08 10:57:49;;;;;;;4.97;2.03;;;;;;;26.00;32.66;94362.31;5064521;28;20037;-81
2022/06/08 11:00:24;;;;;;;5.90;2.28;;;;;;;25.65;32.70;94360.22;5053207;28;20025;-82
2022/06/08 11:02:53;;;;;;;7.60;2.38;;;;;;;25.44;32.70;94359.59;5063931;28;20033;-82
2022/06/08 11:05:28;;;;;;;9.57;2.17;;;;;;;25.33;33.19;94353.19;5051904;28;20041;-81
2022/06/08 11:08:06;;;;;;;7.28;1.95;;;;;;;25.28;34.54;94356.88;5052065;28;20517;-81
2022/06/08 11:10:44;;;;;;;2.00;1.80;;;;;;;25.08;34.28;94347.91;5053938;28;20052;-82
2022/06/08 11:13:22;;;;;;;2.97;2.10;;;;;;;25.22;33.85;94350.22;5053836;28;20095;-81
2022/06/08 11:15:47;;;;;;;6.15;2.00;;;;;;;25.34;33.89;94346.75;5058380;28;20092;-82
2022/06/08 11:18:17;;;;;;;5.68;2.03;;;;;;;25.42;33.50;94340.53;5060743;28;20040;-82
2022/06/08 11:20:47;;;;;;;5.57;1.83;;;;;;;25.53;33.07;94341.59;5054961;28;20049;-82
2022/06/08 11:23:12;;;;;;;5.15;1.88;;;;;;;25.59;33.81;94339.50;5036677;28;20088;-82
2022/06/08 11:26:10;;;;;;;7.35;1.90;;;;;;;25.77;33.32;94334.69;5061931;28;20057;-81
2022/06/08 11:28:39;;;;;;;7.45;2.10;;;;;;;25.84;33.41;94330.31;5035696;28;20025;-81
2022/06/08 11:31:29;;;;;;;3.05;1.80;;;;;;;25.94;33.32;94323.72;5028863;28;20037;-80
2022/06/08 11:34:16;;;;;;;13.38;2.08;;;;;;;25.94;33.51;94318.41;5053976;28;20037;-80
2022/06/08 11:36:41;;;;;;;5.88;1.90;;;;;;;25.62;32.09;94312.19;5062022;28;20112;-82
2022/06/08 11:41:38;;;;;;;12.77;2.38;;;;;;;25.47;33.41;94319.00;5136255;22;20044;-81
2022/06/08 11:44:18;;;;;;;6.72;2.03;;;;;;;25.47;33.76;94311.00;5063462;28;20043;-82
2022/06/08 11:47:06;;;;;;;9.13;1.85;;;;;;;25.52;34.27;94308.09;5040633;28;20041;-82
2022/06/08 11:49:31;;;;;;;4.38;2.00;;;;;;;25.26;33.41;94310.41;5045125;28;20045;-82
2022/06/08 11:51:56;;;;;;;5.82;2.40;;;;;;;25.20;33.66;94309.06;5050561;28;20043;-82
2022/06/08 11:55:17;;;;;;;3.78;2.45;;;;;;;25.14;33.88;94301.34;5026326;28;20033;-82
2022/06/08 11:57:51;;;;;;;4.60;2.70;;;;;;;25.34;33.58;94296.19;5045134;28;20049;-82
2022/06/08 12:00:30;;;;;;;10.68;2.40;;;;;;;25.39;33.56;94294.09;5024999;28;20037;-83
2022/06/08 12:03:27;;;;;;;6.20;2.72;;;;;;;25.61;32.98;94279.47;5050821;28;20034;-83
2022/06/08 12:06:26;;;;;;;8.75;2.30;;;;;;;25.86;33.37;94284.69;5025468;28;20085;-82
2022/06/08 12:09:06;;;;;;;4.18;2.00;;;;;;;25.91;32.01;94289.78;5038332;28;20585;-82
2022/06/08 12:11:33;;;;;;;9.98;2.45;;;;;;;25.79;31.56;94289.84;5025211;28;20854;-82
2022/06/08 12:14:18;;;;;;;7.40;2.40;;;;;;;25.83;31.37;94285.38;5086069;22;20049;-78